Time;durP1;ratioP1;P1;durP2;ratioP2;P2;SDS_P1;SDS_P2;PMS_P1;PMS_P2;Temp;Humidity;BMP_temperature;BMP_pressure;BME280_temperature;BME280_humidity;BME280_pressure;Samples;Min_cycle;Max_cycle;Signal;HPM_P1;HPM_P2
2020/12/14 00:00:39;;;;;;;11.73;8.30;;;4.30;57.60;;;;;;5017887;28;20084;-70
2020/12/14 00:03:06;;;;;;;11.13;7.93;;;4.20;57.50;;;;;;5012254;28;20069;-70
2020/12/14 00:05:33;;;;;;;12.43;8.55;;;4.20;57.80;;;;;;5009541;28;20061;-70
2020/12/14 00:08:00;;;;;;;11.93;7.93;;;4.10;58.70;;;;;;5012434;28;20054;-71
2020/12/14 00:10:27;;;;;;;11.65;7.85;;;4.10;58.70;;;;;;5016058;28;20049;-68
2020/12/14 00:12:54;;;;;;;10.07;7.20;;;4.10;58.50;;;;;;5013378;28;20069;-73
2020/12/14 00:15:21;;;;;;;12.13;7.82;;;4.20;58.90;;;;;;5007156;28;20504;-70
2020/12/14 00:17:49;;;;;;;10.10;7.43;;;4.10;58.30;;;;;;5012060;28;20061;-69
2020/12/14 00:20:17;;;;;;;10.57;8.20;;;4.00;59.00;;;;;;5014601;28;20100;-70
2020/12/14 00:22:44;;;;;;;13.80;7.38;;;4.10;59.30;;;;;;5012703;28;20056;-70
2020/12/14 00:25:11;;;;;;;12.02;7.95;;;4.10;57.90;;;;;;5011815;28;20056;-70
2020/12/14 00:27:38;;;;;;;12.75;7.30;;;4.10;57.50;;;;;;5009020;28;20405;-70
2020/12/14 00:30:05;;;;;;;11.32;6.82;;;4.10;57.50;;;;;;5014967;28;20428;-70
2020/12/14 00:32:32;;;;;;;10.70;7.35;;;4.10;58.20;;;;;;5013392;28;20137;-69
2020/12/14 00:34:59;;;;;;;11.00;7.53;;;4.10;57.40;;;;;;5013878;28;20049;-71
2020/12/14 00:37:28;;;;;;;9.80;6.80;;;4.00;57.20;;;;;;5015628;28;20048;-72
2020/12/14 00:39:54;;;;;;;10.05;6.95;;;4.00;58.40;;;;;;5010067;28;20648;-70
2020/12/14 00:42:21;;;;;;;9.98;7.47;;;4.00;57.60;;;;;;5010557;28;20129;-71
2020/12/14 00:44:48;;;;;;;11.35;7.50;;;4.00;58.30;;;;;;5007815;28;20053;-70
2020/12/14 00:47:16;;;;;;;12.40;7.43;;;4.00;57.50;;;;;;5011048;28;20049;-70
2020/12/14 00:49:43;;;;;;;10.02;7.30;;;3.90;58.30;;;;;;5010101;28;20663;-69
2020/12/14 00:52:10;;;;;;;10.85;7.90;;;3.80;58.80;;;;;;5012241;28;20749;-71
2020/12/14 00:54:42;;;;;;;11.05;7.70;;;3.80;59.40;;;;;;5006969;28;20056;-70
2020/12/14 00:57:09;;;;;;;11.23;8.00;;;3.80;59.90;;;;;;5010171;28;20054;-71
2020/12/14 00:59:36;;;;;;;12.55;8.35;;;3.80;59.50;;;;;;5012425;28;20428;-71
2020/12/14 01:02:03;;;;;;;11.23;7.70;;;3.80;59.10;;;;;;5013214;28;20416;-70
2020/12/14 01:04:30;;;;;;;11.45;8.50;;;3.70;59.70;;;;;;5007483;28;20050;-70
2020/12/14 01:06:56;;;;;;;12.38;8.65;;;3.60;60.30;;;;;;5011361;28;20420;-70
2020/12/14 01:09:23;;;;;;;13.27;8.50;;;3.50;60.80;;;;;;5011731;28;20042;-70
2020/12/14 01:11:51;;;;;;;11.75;8.05;;;3.50;61.80;;;;;;5008372;28;20045;-70
2020/12/14 01:14:18;;;;;;;10.35;7.65;;;3.50;62.60;;;;;;5006756;28;20042;-69
2020/12/14 01:16:46;;;;;;;9.93;7.20;;;3.50;62.00;;;;;;5008957;28;20046;-70
2020/12/14 01:19:13;;;;;;;11.85;8.07;;;3.60;61.30;;;;;;5009683;28;20145;-70
2020/12/14 01:21:40;;;;;;;11.02;7.57;;;3.70;61.10;;;;;;5009286;28;20053;-70
2020/12/14 01:24:07;;;;;;;12.23;7.97;;;3.80;61.10;;;;;;5009317;28;20045;-70
2020/12/14 01:26:34;;;;;;;10.93;7.85;;;3.80;60.10;;;;;;5007705;28;20053;-70
2020/12/14 01:29:02;;;;;;;9.55;7.10;;;3.80;60.30;;;;;;5009537;28;20057;-70
2020/12/14 01:31:28;;;;;;;12.35;8.52;;;3.80;60.40;;;;;;5010740;28;20053;-70
2020/12/14 01:33:55;;;;;;;11.70;7.38;;;3.80;59.50;;;;;;5011300;28;20415;-71
2020/12/14 01:36:22;;;;;;;10.07;6.60;;;3.80;59.30;;;;;;5006572;28;20056;-71
2020/12/14 01:38:49;;;;;;;11.23;7.25;;;3.80;58.90;;;;;;5009418;28;20054;-71
2020/12/14 01:41:16;;;;;;;10.00;7.22;;;3.80;58.70;;;;;;5008497;28;20053;-71
2020/12/14 01:43:43;;;;;;;12.38;7.32;;;3.80;58.50;;;;;;5007843;28;20428;-71
2020/12/14 01:46:11;;;;;;;13.68;8.27;;;3.80;58.60;;;;;;5007363;28;20057;-70
2020/12/14 01:48:38;;;;;;;12.23;7.55;;;3.70;58.80;;;;;;5008092;28;20514;-71
2020/12/14 01:51:05;;;;;;;10.98;7.72;;;3.70;59.50;;;;;;5009962;28;20762;-71
2020/12/14 01:53:34;;;;;;;12.50;8.00;;;3.70;59.30;;;;;;5009776;28;20049;-70
2020/12/14 01:56:04;;;;;;;11.57;8.18;;;3.60;59.90;;;;;;5003857;28;20159;-71
2020/12/14 01:58:31;;;;;;;11.05;7.72;;;3.60;59.40;;;;;;5011804;28;20144;-71
2020/12/14 02:00:58;;;;;;;10.48;7.80;;;3.50;60.10;;;;;;5009457;28;20049;-71
2020/12/14 02:03:26;;;;;;;9.15;7.68;;;3.50;60.80;;;;;;5010688;28;20089;-68
2020/12/14 02:05:53;;;;;;;11.05;7.63;;;3.50;60.90;;;;;;5007397;28;20057;-70
2020/12/14 02:08:20;;;;;;;12.70;7.57;;;3.50;61.20;;;;;;5014548;28;20041;-70
2020/12/14 02:10:47;;;;;;;11.07;8.15;;;3.50;60.90;;;;;;5012504;28;20041;-71
2020/12/14 02:13:14;;;;;;;10.73;7.43;;;3.50;60.60;;;;;;5013325;28;20050;-70
2020/12/14 02:15:41;;;;;;;10.48;7.63;;;3.60;60.80;;;;;;5008750;28;20049;-71
2020/12/14 02:18:07;;;;;;;11.35;7.28;;;3.50;60.00;;;;;;5011545;28;20045;-71
2020/12/14 02:20:35;;;;;;;12.05;7.43;;;3.50;59.70;;;;;;5012764;28;20502;-71
2020/12/14 02:23:02;;;;;;;14.15;7.95;;;3.50;60.00;;;;;;5013387;28;20050;-69
2020/12/14 02:29:18;;;;;;;12.07;7.85;;;3.50;60.00;;;;;;5007947;28;20105;-70
2020/12/14 02:31:45;;;;;;;10.52;7.60;;;3.60;58.90;;;;;;5013959;28;20071;-70
2020/12/14 02:34:12;;;;;;;12.88;8.52;;;3.50;59.10;;;;;;5012837;28;20037;-71
2020/12/14 02:36:40;;;;;;;11.40;7.75;;;3.50;58.90;;;;;;5007432;28;20053;-71
2020/12/14 02:39:07;;;;;;;11.70;8.38;;;3.50;58.90;;;;;;5013098;28;20060;-71
2020/12/14 02:41:34;;;;;;;13.05;8.70;;;3.40;59.20;;;;;;5012824;28;20064;-71
2020/12/14 02:44:01;;;;;;;11.30;7.45;;;3.40;60.70;;;;;;5010760;28;20056;-71
2020/12/14 02:46:28;;;;;;;12.40;8.93;;;3.40;60.80;;;;;;5008830;28;20053;-71
2020/12/14 02:48:55;;;;;;;14.25;8.27;;;3.40;60.80;;;;;;5013145;28;20056;-71
2020/12/14 02:51:22;;;;;;;17.02;7.88;;;3.30;60.70;;;;;;5012903;28;20045;-71
2020/12/14 02:53:49;;;;;;;12.07;8.27;;;3.30;60.70;;;;;;5010924;28;20049;-70
2020/12/14 02:56:19;;;;;;;12.82;8.55;;;3.20;60.60;;;;;;5008431;28;20054;-71
2020/12/14 02:58:46;;;;;;;13.35;8.48;;;3.20;62.00;;;;;;5013057;28;20423;-68
2020/12/14 03:01:13;;;;;;;12.75;7.90;;;3.20;60.70;;;;;;5012396;28;20485;-71
2020/12/14 03:03:41;;;;;;;11.05;7.55;;;3.10;60.50;;;;;;5012281;28;20053;-69
2020/12/14 03:06:07;;;;;;;10.93;7.90;;;3.20;61.40;;;;;;5008788;28;20506;-69
2020/12/14 03:08:34;;;;;;;11.40;7.85;;;3.30;60.70;;;;;;5013878;28;20057;-69
2020/12/14 03:11:01;;;;;;;12.82;7.75;;;3.20;60.60;;;;;;5011948;28;20051;-71
2020/12/14 03:13:28;;;;;;;13.15;7.97;;;3.20;60.60;;;;;;5011975;28;20833;-71
2020/12/14 03:15:55;;;;;;;13.20;8.00;;;3.20;60.60;;;;;;5007900;28;20246;-71
2020/12/14 03:18:22;;;;;;;14.13;8.77;;;3.30;60.10;;;;;;5011181;28;20056;-69
2020/12/14 03:20:50;;;;;;;12.27;7.95;;;3.20;59.60;;;;;;5011355;28;20054;-71
2020/12/14 03:23:17;;;;;;;11.90;7.90;;;3.20;60.30;;;;;;5012657;28;20065;-71
2020/12/14 03:25:44;;;;;;;13.32;7.82;;;3.40;58.10;;;;;;5005828;28;20046;-70
2020/12/14 03:28:11;;;;;;;12.48;8.20;;;3.30;57.90;;;;;;5009601;28;20054;-71
2020/12/14 03:30:38;;;;;;;11.82;8.23;;;3.30;58.30;;;;;;5013111;28;20435;-70
2020/12/14 03:33:05;;;;;;;12.52;8.25;;;3.20;58.00;;;;;;5010209;28;20831;-72
2020/12/14 03:35:32;;;;;;;13.45;9.15;;;3.20;58.20;;;;;;5009397;28;20037;-72
2020/12/14 03:37:59;;;;;;;15.35;9.32;;;3.10;58.40;;;;;;5009780;28;20053;-72
2020/12/14 03:40:26;;;;;;;14.35;9.40;;;3.10;59.70;;;;;;5011506;28;20442;-71
2020/12/14 03:42:53;;;;;;;15.68;9.68;;;3.10;59.10;;;;;;5012820;28;20056;-72
2020/12/14 03:45:20;;;;;;;16.17;9.65;;;3.10;60.30;;;;;;5004739;28;20058;-73
2020/12/14 03:47:46;;;;;;;18.80;10.50;;;3.10;60.50;;;;;;5012726;28;20048;-69
2020/12/14 03:50:13;;;;;;;14.90;10.70;;;3.10;60.30;;;;;;5012992;28;20045;-72
2020/12/14 03:52:40;;;;;;;17.30;11.02;;;3.10;59.50;;;;;;5013957;28;20173;-72
2020/12/14 03:55:08;;;;;;;16.00;10.25;;;3.10;60.60;;;;;;5006990;28;20050;-72
2020/12/14 03:57:35;;;;;;;17.20;10.63;;;3.00;60.40;;;;;;5011898;28;20133;-70
2020/12/14 04:00:03;;;;;;;17.40;10.80;;;3.00;61.20;;;;;;5011403;28;20042;-71
2020/12/14 04:02:29;;;;;;;15.88;11.25;;;2.90;60.40;;;;;;5009708;28;20053;-71
2020/12/14 04:04:56;;;;;;;17.13;10.55;;;2.90;60.70;;;;;;5007900;28;20053;-71
2020/12/14 04:07:23;;;;;;;12.95;8.68;;;2.90;60.90;;;;;;5009277;28;20050;-70
2020/12/14 04:09:50;;;;;;;13.20;9.68;;;3.00;61.10;;;;;;5010612;28;20058;-72
2020/12/14 04:12:18;;;;;;;15.90;9.98;;;3.00;60.40;;;;;;5011063;28;20136;-69
2020/12/14 04:14:45;;;;;;;13.75;9.07;;;2.90;60.40;;;;;;5008586;28;20041;-68
2020/12/14 04:17:12;;;;;;;13.73;8.48;;;2.80;61.00;;;;;;5009928;28;20404;-70
2020/12/14 04:19:39;;;;;;;13.80;9.07;;;2.80;61.70;;;;;;5011123;28;20050;-72
2020/12/14 04:22:07;;;;;;;14.02;8.85;;;2.90;61.90;;;;;;5010722;28;20078;-70
2020/12/14 04:24:35;;;;;;;13.15;8.45;;;2.90;61.30;;;;;;5011817;28;20069;-68
2020/12/14 04:27:02;;;;;;;12.95;8.25;;;2.90;60.80;;;;;;5006601;28;20061;-69
2020/12/14 04:29:30;;;;;;;12.63;9.00;;;2.90;60.70;;;;;;5008343;28;20050;-70
2020/12/14 04:31:57;;;;;;;14.63;9.02;;;2.90;61.20;;;;;;5008446;28;20046;-70
2020/12/14 04:34:24;;;;;;;13.43;8.65;;;2.80;61.30;;;;;;5008607;28;20038;-70
2020/12/14 04:36:51;;;;;;;14.27;8.63;;;2.80;61.40;;;;;;5007958;28;20069;-69
2020/12/14 04:39:19;;;;;;;15.07;9.68;;;2.80;62.50;;;;;;5011118;28;20053;-70
2020/12/14 04:41:46;;;;;;;15.25;8.60;;;2.80;62.70;;;;;;5010465;28;20049;-69
2020/12/14 04:44:13;;;;;;;16.58;8.77;;;2.80;61.70;;;;;;5007532;28;20492;-71
2020/12/14 04:46:42;;;;;;;19.48;9.30;;;2.80;61.40;;;;;;5009863;28;20050;-71
2020/12/14 04:49:09;;;;;;;15.73;10.15;;;2.80;61.40;;;;;;5011467;28;20069;-71
2020/12/14 04:51:38;;;;;;;14.80;9.20;;;2.80;62.10;;;;;;5009120;28;20047;-70
2020/12/14 04:54:06;;;;;;;15.02;9.38;;;2.70;60.80;;;;;;5008122;28;20050;-70
2020/12/14 04:56:40;;;;;;;14.85;9.45;;;2.70;61.60;;;;;;5003104;28;20136;-68
2020/12/14 04:59:08;;;;;;;11.90;8.73;;;2.70;61.90;;;;;;5010433;28;20046;-69
2020/12/14 05:01:35;;;;;;;21.63;9.95;;;2.70;62.10;;;;;;5009605;28;20058;-70
2020/12/14 05:04:03;;;;;;;15.00;9.65;;;2.70;62.40;;;;;;5009868;28;20145;-70
2020/12/14 05:06:47;;;;;;;14.25;8.82;;;2.70;62.70;;;;;;5006291;28;20053;-71
2020/12/14 05:09:16;;;;;;;18.80;9.93;;;2.80;62.80;;;;;;5010616;28;20049;-72
2020/12/14 05:11:43;;;;;;;15.18;9.30;;;2.80;61.10;;;;;;5011543;28;20054;-72
2020/12/14 05:14:15;;;;;;;13.30;9.07;;;2.80;61.80;;;;;;5008647;28;20064;-71
2020/12/14 05:16:42;;;;;;;14.35;9.02;;;2.80;61.60;;;;;;5004686;28;20141;-71
2020/12/14 05:19:24;;;;;;;14.02;9.32;;;2.70;61.60;;;;;;5008581;28;20050;-72
2020/12/14 05:21:53;;;;;;;15.52;9.07;;;2.80;61.30;;;;;;5011743;28;20054;-72
2020/12/14 05:24:24;;;;;;;11.90;8.35;;;2.80;60.70;;;;;;5008938;28;20042;-71
2020/12/14 05:26:52;;;;;;;13.88;9.02;;;2.90;60.40;;;;;;5005916;28;20087;-70
2020/12/14 05:29:23;;;;;;;13.98;8.98;;;2.80;59.80;;;;;;5010008;28;20050;-71
2020/12/14 05:32:00;;;;;;;12.35;8.50;;;2.90;60.00;;;;;;5009048;28;20496;-70
2020/12/14 05:34:31;;;;;;;13.43;9.02;;;2.80;59.30;;;;;;5009546;28;20045;-70
2020/12/14 05:36:59;;;;;;;14.48;8.65;;;2.80;59.80;;;;;;5005039;28;20451;-70
2020/12/14 05:39:26;;;;;;;14.60;7.88;;;2.70;60.20;;;;;;5007956;28;20049;-70
2020/12/14 05:41:54;;;;;;;16.05;9.05;;;2.80;60.30;;;;;;5012468;28;20249;-70
2020/12/14 05:44:28;;;;;;;13.02;8.52;;;2.80;60.70;;;;;;5013720;28;20116;-70
2020/12/14 05:46:55;;;;;;;15.77;9.50;;;2.70;60.20;;;;;;5008243;28;20129;-70
2020/12/14 05:49:22;;;;;;;12.50;8.77;;;2.70;60.60;;;;;;5014356;28;20763;-71
2020/12/14 05:51:50;;;;;;;15.98;9.68;;;2.60;60.10;;;;;;5013211;28;20042;-71
2020/12/14 05:54:24;;;;;;;14.65;8.95;;;2.60;60.80;;;;;;5015504;28;20042;-70
2020/12/14 05:56:54;;;;;;;13.30;9.52;;;2.60;61.50;;;;;;5007160;28;20065;-71
2020/12/14 05:59:21;;;;;;;13.70;8.55;;;2.60;61.80;;;;;;5012428;28;20046;-71
2020/12/14 06:01:49;;;;;;;14.27;9.05;;;2.60;61.00;;;;;;5015225;28;20041;-70
2020/12/14 06:04:19;;;;;;;15.18;9.20;;;2.60;62.00;;;;;;5013651;28;20085;-70
2020/12/14 06:06:47;;;;;;;31.45;14.77;;;2.60;60.50;;;;;;5009745;28;20072;-71
2020/12/14 06:09:22;;;;;;;49.80;24.05;;;2.60;62.20;;;;;;5013327;28;20651;-72
2020/12/14 06:11:53;;;;;;;73.20;30.05;;;2.60;61.50;;;;;;5015588;28;20574;-68
2020/12/14 06:14:21;;;;;;;50.03;22.45;;;2.60;61.80;;;;;;5014490;28;20056;-70
2020/12/14 06:16:48;;;;;;;21.98;11.95;;;2.60;60.10;;;;;;5009019;28;20564;-70
2020/12/14 06:19:15;;;;;;;17.17;10.63;;;2.60;61.30;;;;;;5012259;28;20500;-70
2020/12/14 06:21:46;;;;;;;17.40;9.32;;;2.60;60.10;;;;;;5011930;28;20061;-71
2020/12/14 06:24:22;;;;;;;18.05;9.35;;;2.70;60.10;;;;;;5013551;28;20052;-69
2020/12/14 06:26:49;;;;;;;12.63;8.65;;;2.70;60.60;;;;;;5000540;28;20113;-70
2020/12/14 06:29:35;;;;;;;14.88;9.13;;;2.70;60.20;;;;;;5006465;28;20049;-69
2020/12/14 06:32:03;;;;;;;12.80;9.40;;;2.80;59.60;;;;;;5011122;28;20050;-69
2020/12/14 06:34:40;;;;;;;13.63;8.23;;;2.80;59.40;;;;;;5009585;28;20136;-70
2020/12/14 06:37:08;;;;;;;16.00;8.85;;;2.80;58.50;;;;;;5008429;28;20124;-70
2020/12/14 06:39:40;;;;;;;13.95;9.27;;;2.80;57.70;;;;;;5009419;28;20050;-71
2020/12/14 06:42:24;;;;;;;15.30;9.15;;;2.90;58.20;;;;;;5011606;28;20501;-71
2020/12/14 06:45:09;;;;;;;18.00;9.30;;;2.90;58.10;;;;;;5009246;28;20124;-71
2020/12/14 06:47:43;;;;;;;16.98;9.43;;;2.90;57.60;;;;;;5010519;28;20054;-70
2020/12/14 06:50:37;;;;;;;20.42;9.02;;;2.80;58.00;;;;;;5009966;28;20042;-69
2020/12/14 06:53:25;;;;;;;12.75;8.82;;;2.80;58.10;;;;;;5010812;28;20049;-70
2020/12/14 06:55:53;;;;;;;14.30;8.45;;;2.90;57.00;;;;;;5009528;28;20049;-71
2020/12/14 06:58:47;;;;;;;17.73;9.70;;;2.90;56.50;;;;;;5012825;28;20492;-70
2020/12/14 07:01:35;;;;;;;14.50;8.90;;;2.90;56.50;;;;;;4973525;28;20046;-73
2020/12/14 07:04:04;;;;;;;13.15;8.32;;;2.80;56.40;;;;;;5012199;28;20643;-69
2020/12/14 07:06:32;;;;;;;12.65;7.78;;;2.80;56.80;;;;;;5008685;28;20073;-71
2020/12/14 07:09:25;;;;;;;11.32;7.53;;;2.80;56.70;;;;;;5011291;28;20050;-70
2020/12/14 07:11:53;;;;;;;13.82;8.18;;;2.70;56.60;;;;;;5012093;28;20050;-71
2020/12/14 07:14:30;;;;;;;17.15;8.90;;;2.70;57.30;;;;;;5012422;28;22348;-70
2020/12/14 07:16:58;;;;;;;14.88;8.07;;;2.80;56.90;;;;;;5010879;28;20049;-71
2020/12/14 07:19:37;;;;;;;14.05;7.88;;;2.80;57.00;;;;;;5012538;28;20096;-69
2020/12/14 07:22:06;;;;;;;14.63;7.90;;;2.80;56.10;;;;;;5011438;28;20056;-72
2020/12/14 07:24:35;;;;;;;13.13;8.25;;;2.80;56.40;;;;;;5010915;28;20042;-70
2020/12/14 07:27:03;;;;;;;13.65;7.20;;;2.90;56.50;;;;;;5011013;28;20054;-71
2020/12/14 07:29:30;;;;;;;13.63;8.50;;;2.90;56.40;;;;;;5011978;28;20045;-69
2020/12/14 07:31:56;;;;;;;14.38;8.60;;;2.90;56.20;;;;;;5012152;28;20129;-71
2020/12/14 07:34:23;;;;;;;15.73;8.95;;;2.90;55.30;;;;;;5010047;28;20045;-71
2020/12/14 07:36:50;;;;;;;14.65;8.38;;;3.00;55.30;;;;;;5010409;28;20050;-70
2020/12/14 07:39:17;;;;;;;14.30;8.27;;;3.00;54.80;;;;;;5011075;28;20048;-70
2020/12/14 07:41:47;;;;;;;13.93;7.80;;;3.10;54.00;;;;;;5011703;28;20073;-71
2020/12/14 07:44:16;;;;;;;15.27;8.90;;;3.00;53.30;;;;;;5011205;28;20061;-72
2020/12/14 07:46:44;;;;;;;17.23;8.88;;;3.10;53.70;;;;;;5010355;28;20096;-71
2020/12/14 07:49:13;;;;;;;12.48;7.30;;;3.00;53.30;;;;;;5011724;28;20133;-73
2020/12/14 07:51:42;;;;;;;14.52;8.02;;;3.10;53.90;;;;;;5011714;28;20053;-70
2020/12/14 07:54:13;;;;;;;18.92;8.10;;;3.10;53.60;;;;;;5010371;28;20052;-69
2020/12/14 07:56:46;;;;;;;24.25;8.05;;;3.20;53.50;;;;;;5010091;28;20100;-70
2020/12/14 07:59:18;;;;;;;14.65;7.95;;;3.20;52.80;;;;;;5011540;28;20124;-71
2020/12/14 08:01:46;;;;;;;13.15;7.43;;;3.20;51.40;;;;;;5010365;28;20054;-71
2020/12/14 08:04:20;;;;;;;11.68;6.85;;;3.30;51.10;;;;;;5010693;28;20100;-70
2020/12/14 08:06:49;;;;;;;14.27;8.13;;;3.20;50.80;;;;;;5009572;28;20049;-71
2020/12/14 08:09:19;;;;;;;16.83;8.13;;;3.20;51.50;;;;;;5009958;28;20048;-70
2020/12/14 08:11:47;;;;;;;11.43;7.53;;;3.30;51.50;;;;;;5011340;28;20049;-72
2020/12/14 08:14:17;;;;;;;13.40;7.45;;;3.40;50.90;;;;;;5009499;28;20046;-70
2020/12/14 08:16:45;;;;;;;13.60;7.63;;;3.40;50.20;;;;;;5009726;28;20056;-72
2020/12/14 08:19:16;;;;;;;12.93;7.47;;;3.40;49.60;;;;;;5011180;28;20046;-69
2020/12/14 08:22:00;;;;;;;19.38;11.40;;;3.50;49.10;;;;;;5011335;28;20049;-71
2020/12/14 08:24:27;;;;;;;12.13;7.78;;;3.70;49.00;;;;;;5010754;28;20427;-70
2020/12/14 08:26:59;;;;;;;13.90;7.82;;;3.70;46.60;;;;;;5009301;28;20041;-70
2020/12/14 08:29:30;;;;;;;13.10;8.07;;;3.70;46.10;;;;;;5010086;28;20164;-70
2020/12/14 08:31:58;;;;;;;12.93;7.60;;;3.80;46.40;;;;;;5010703;28;20469;-70
2020/12/14 08:34:34;;;;;;;12.38;8.00;;;3.80;46.90;;;;;;5010597;28;20665;-71
2020/12/14 08:37:01;;;;;;;12.55;8.43;;;3.80;45.30;;;;;;5009184;28;20125;-71
2020/12/14 08:39:28;;;;;;;11.57;7.30;;;3.90;45.40;;;;;;5010801;28;20412;-70
2020/12/14 08:42:06;;;;;;;12.98;7.25;;;3.90;45.40;;;;;;5010626;28;20572;-71
2020/12/14 08:44:34;;;;;;;15.30;8.15;;;4.00;45.40;;;;;;5008709;28;20728;-70
2020/12/14 08:47:02;;;;;;;11.30;7.40;;;4.00;45.30;;;;;;5010443;28;20496;-72
2020/12/14 08:49:30;;;;;;;10.93;6.65;;;4.10;44.10;;;;;;5010586;28;20076;-71
2020/12/14 08:51:57;;;;;;;11.80;6.88;;;4.10;43.90;;;;;;5010727;28;20556;-70
2020/12/14 08:54:26;;;;;;;14.38;7.35;;;4.10;43.50;;;;;;5010223;28;20143;-70
2020/12/14 08:56:53;;;;;;;11.88;6.63;;;4.20;42.20;;;;;;5007468;28;20132;-71
2020/12/14 08:59:23;;;;;;;18.80;8.20;;;4.30;42.40;;;;;;5010439;28;20125;-70
2020/12/14 09:02:00;;;;;;;10.57;6.65;;;4.30;41.90;;;;;;5010532;28;20049;-71
2020/12/14 09:04:29;;;;;;;10.65;6.65;;;4.30;41.30;;;;;;5009005;28;20152;-69
2020/12/14 09:06:57;;;;;;;10.82;7.22;;;4.50;41.30;;;;;;5010019;28;20057;-70
2020/12/14 09:09:32;;;;;;;11.60;6.97;;;4.60;39.00;;;;;;5010512;28;20046;-68
2020/12/14 09:12:00;;;;;;;11.32;6.95;;;4.60;38.40;;;;;;5010176;28;20518;-70
2020/12/14 09:14:29;;;;;;;11.43;7.30;;;4.60;38.50;;;;;;5008816;28;20046;-69
2020/12/14 09:16:58;;;;;;;12.30;7.10;;;4.70;37.80;;;;;;5012376;28;20064;-71
2020/12/14 09:19:26;;;;;;;11.15;7.07;;;4.70;37.10;;;;;;5014118;28;20054;-71
2020/12/14 09:21:54;;;;;;;10.38;6.75;;;4.80;37.30;;;;;;5014320;28;20053;-70
2020/12/14 09:24:24;;;;;;;12.35;7.35;;;4.90;35.80;;;;;;5014050;28;20049;-70
2020/12/14 09:26:54;;;;;;;10.27;7.07;;;4.90;34.50;;;;;;5012711;28;20049;-70
2020/12/14 09:29:21;;;;;;;12.27;7.15;;;4.90;35.10;;;;;;5012829;28;20053;-71
2020/12/14 09:31:50;;;;;;;12.88;8.15;;;5.10;35.70;;;;;;5014071;28;20054;-70
2020/12/14 09:34:18;;;;;;;13.43;7.60;;;5.30;33.50;;;;;;5013754;28;20037;-69
2020/12/14 09:36:46;;;;;;;13.32;7.65;;;5.30;33.60;;;;;;5011254;28;20050;-71
2020/12/14 09:39:12;;;;;;;13.02;7.40;;;5.40;32.50;;;;;;5011548;28;20046;-70
2020/12/14 09:41:39;;;;;;;10.55;7.55;;;5.50;31.20;;;;;;5013228;28;20517;-70
2020/12/14 09:44:06;;;;;;;10.30;6.85;;;5.60;30.00;;;;;;5010213;28;20496;-70
2020/12/14 09:46:33;;;;;;;11.23;7.20;;;5.70;29.40;;;;;;5012452;28;20038;-71
2020/12/14 09:49:00;;;;;;;13.02;7.95;;;5.70;28.60;;;;;;5013882;28;20131;-70
2020/12/14 09:51:29;;;;;;;11.77;7.57;;;5.80;28.70;;;;;;5013783;28;20052;-70
2020/12/14 09:53:56;;;;;;;13.57;6.63;;;5.80;28.30;;;;;;5012778;28;20054;-70
2020/12/14 09:56:23;;;;;;;11.68;6.80;;;5.90;27.90;;;;;;5011322;28;20052;-70
2020/12/14 09:58:50;;;;;;;12.25;7.55;;;6.10;27.20;;;;;;5013793;28;20046;-70
2020/12/14 10:01:17;;;;;;;13.65;7.13;;;6.30;25.60;;;;;;5013874;28;20496;-71
2020/12/14 10:03:44;;;;;;;13.10;7.22;;;6.50;24.60;;;;;;5012281;28;20049;-70
2020/12/14 10:06:12;;;;;;;11.00;6.90;;;6.50;24.20;;;;;;5012559;28;20500;-70
2020/12/14 10:08:40;;;;;;;11.20;7.45;;;6.60;24.00;;;;;;5012861;28;20064;-69
2020/12/14 10:11:07;;;;;;;15.18;8.93;;;6.60;23.60;;;;;;5013603;28;20118;-70
2020/12/14 10:13:35;;;;;;;11.50;7.03;;;6.60;24.00;;;;;;5013453;28;20053;-70
2020/12/14 10:16:02;;;;;;;11.30;7.25;;;6.70;24.10;;;;;;5012399;28;20045;-72
2020/12/14 10:18:29;;;;;;;11.85;6.90;;;6.80;24.20;;;;;;5013366;28;20056;-71
2020/12/14 10:20:56;;;;;;;10.93;7.05;;;6.90;22.30;;;;;;5012901;28;20050;-69
2020/12/14 10:23:23;;;;;;;10.80;7.47;;;6.90;22.60;;;;;;5011892;28;20090;-71
2020/12/14 10:25:51;;;;;;;13.77;7.32;;;6.90;22.20;;;;;;5011217;28;20416;-70
2020/12/14 10:28:18;;;;;;;11.50;6.95;;;7.00;23.20;;;;;;5013003;28;20049;-72
2020/12/14 10:30:45;;;;;;;13.43;7.32;;;7.00;21.60;;;;;;5011573;28;20049;-70
2020/12/14 10:33:18;;;;;;;15.68;6.85;;;7.10;21.50;;;;;;5013127;28;20158;-71
2020/12/14 10:35:45;;;;;;;10.57;6.80;;;7.10;20.90;;;;;;5009939;28;20042;-71
2020/12/14 10:38:12;;;;;;;10.43;6.85;;;7.20;20.30;;;;;;5013006;28;20515;-72
2020/12/14 10:40:40;;;;;;;12.43;6.80;;;7.20;18.90;;;;;;5012941;28;20181;-70
2020/12/14 10:43:07;;;;;;;10.75;6.70;;;7.30;19.20;;;;;;5011575;28;20054;-71
2020/12/14 10:45:35;;;;;;;10.70;6.35;;;7.40;18.60;;;;;;5010596;28;20136;-70
2020/12/14 10:48:02;;;;;;;20.25;8.02;;;7.40;17.60;;;;;;5012695;28;20104;-72
2020/12/14 10:50:29;;;;;;;12.35;6.45;;;7.40;18.10;;;;;;5010774;28;20045;-71
2020/12/14 10:52:56;;;;;;;20.65;7.05;;;7.50;17.70;;;;;;5012181;28;20046;-72
2020/12/14 10:55:24;;;;;;;8.00;5.63;;;7.50;17.40;;;;;;5010677;28;20095;-72
2020/12/14 10:57:52;;;;;;;9.88;6.63;;;7.50;16.40;;;;;;5012159;28;20141;-71
2020/12/14 11:00:21;;;;;;;10.43;5.93;;;7.60;16.50;;;;;;5011531;28;20141;-71
2020/12/14 11:02:48;;;;;;;10.25;6.55;;;7.50;16.70;;;;;;5010804;28;20077;-72
2020/12/14 11:05:16;;;;;;;10.48;6.00;;;7.50;17.10;;;;;;5010206;28;20096;-69
2020/12/14 11:07:43;;;;;;;11.07;6.28;;;7.40;16.70;;;;;;5011863;28;20100;-72
2020/12/14 11:10:11;;;;;;;8.75;5.82;;;7.60;17.00;;;;;;5011958;28;20128;-72
2020/12/14 11:12:38;;;;;;;7.15;5.38;;;7.70;16.50;;;;;;5011113;28;20144;-70
2020/12/14 11:15:07;;;;;;;9.23;6.60;;;7.60;16.50;;;;;;5010486;28;20437;-71
2020/12/14 11:17:36;;;;;;;9.77;5.72;;;7.50;17.00;;;;;;5010029;28;20508;-70
2020/12/14 11:20:05;;;;;;;9.55;5.70;;;7.60;17.80;;;;;;5011839;28;20140;-71
2020/12/14 11:22:32;;;;;;;14.63;6.68;;;7.60;16.60;;;;;;5010706;28;20155;-70
2020/12/14 11:24:59;;;;;;;11.65;5.85;;;7.70;16.00;;;;;;5009643;28;20120;-70
2020/12/14 11:27:25;;;;;;;13.13;5.80;;;7.70;16.50;;;;;;5011661;28;20080;-71
2020/12/14 11:29:52;;;;;;;10.05;6.32;;;7.80;16.50;;;;;;5011526;28;20092;-70
2020/12/14 11:32:19;;;;;;;11.30;6.60;;;7.80;16.70;;;;;;5010356;28;20052;-70
2020/12/14 11:34:47;;;;;;;14.65;6.60;;;7.80;16.00;;;;;;5010191;28;20049;-68
2020/12/14 11:37:14;;;;;;;10.93;6.22;;;8.00;15.70;;;;;;5001078;28;20045;-70
2020/12/14 11:39:41;;;;;;;9.45;5.75;;;7.90;16.40;;;;;;5001913;28;20060;-70
2020/12/14 11:42:09;;;;;;;7.85;5.65;;;8.00;16.00;;;;;;4999072;28;20056;-68
2020/12/14 11:44:36;;;;;;;13.70;6.22;;;8.00;15.90;;;;;;5004215;28;20368;-70
2020/12/14 11:47:03;;;;;;;13.88;5.53;;;8.00;16.00;;;;;;5007598;28;20471;-71
2020/12/14 11:49:31;;;;;;;8.98;5.80;;;7.90;15.40;;;;;;5007972;28;20049;-70
2020/12/14 11:51:59;;;;;;;8.63;5.35;;;7.90;15.40;;;;;;5010481;28;20072;-71
2020/12/14 11:54:26;;;;;;;9.13;5.97;;;8.00;15.00;;;;;;5009527;28;20045;-72
2020/12/14 11:56:54;;;;;;;10.90;5.30;;;8.00;14.90;;;;;;5008917;28;20058;-71
2020/12/14 11:59:22;;;;;;;27.83;16.23;;;7.90;14.40;;;;;;5011759;28;20495;-71
2020/12/14 12:01:50;;;;;;;9.95;6.13;;;8.20;14.60;;;;;;5012286;28;20053;-71
2020/12/14 12:04:17;;;;;;;8.27;4.90;;;8.20;14.30;;;;;;5011903;28;20134;-70
2020/12/14 12:06:44;;;;;;;9.20;5.32;;;8.00;14.50;;;;;;5010535;28;20046;-71
2020/12/14 12:09:25;;;;;;;9.20;6.20;;;8.00;15.20;;;;;;5009736;28;20046;-71
2020/12/14 12:11:52;;;;;;;14.18;6.18;;;8.00;16.10;;;;;;5009542;28;20058;-70
2020/12/14 12:14:19;;;;;;;11.18;6.10;;;8.20;15.10;;;;;;5007139;28;20522;-71
2020/12/14 12:16:46;;;;;;;9.73;6.25;;;8.10;15.40;;;;;;5008251;28;20117;-71
2020/12/14 12:19:14;;;;;;;9.45;6.32;;;8.20;16.00;;;;;;5010952;28;20050;-71
2020/12/14 12:21:41;;;;;;;11.90;5.70;;;8.00;16.20;;;;;;5014391;28;20124;-71
2020/12/14 12:24:08;;;;;;;12.23;6.55;;;8.00;16.90;;;;;;5005237;28;20049;-71
2020/12/14 12:26:35;;;;;;;10.85;6.65;;;8.10;16.80;;;;;;5012749;28;21301;-71
2020/12/14 12:29:02;;;;;;;9.88;6.38;;;8.20;16.00;;;;;;5010001;28;20512;-70
2020/12/14 12:31:29;;;;;;;11.27;6.57;;;8.20;15.80;;;;;;5008293;28;20389;-70
2020/12/14 12:33:56;;;;;;;13.40;6.43;;;8.20;15.90;;;;;;5006576;28;20112;-70
2020/12/14 12:36:23;;;;;;;12.85;6.10;;;8.20;16.60;;;;;;5011430;28;20065;-70
2020/12/14 12:38:50;;;;;;;9.70;6.20;;;8.20;17.40;;;;;;5008610;28;20550;-70
2020/12/14 12:41:17;;;;;;;9.93;5.90;;;8.20;17.10;;;;;;5011663;28;20045;-70
2020/12/14 12:43:44;;;;;;;9.15;5.28;;;8.20;17.00;;;;;;5007338;28;20050;-70
2020/12/14 12:46:11;;;;;;;8.43;5.80;;;8.10;16.30;;;;;;5010202;28;20052;-71
2020/12/14 12:48:38;;;;;;;8.40;5.93;;;8.10;16.20;;;;;;5010067;28;20555;-70
2020/12/14 12:51:07;;;;;;;8.57;6.43;;;8.10;16.30;;;;;;5010410;28;20046;-72
2020/12/14 12:53:34;;;;;;;13.45;5.88;;;8.10;16.60;;;;;;5006367;28;20155;-69
2020/12/14 12:56:01;;;;;;;11.13;5.95;;;8.20;16.40;;;;;;5011094;28;20049;-70
2020/12/14 12:58:28;;;;;;;10.98;6.95;;;8.30;16.70;;;;;;5010976;28;20052;-71